Time;durP1;ratioP1;P1;durP2;ratioP2;P2;SDS_P1;SDS_P2;PMS_P1;PMS_P2;Temp;Humidity;BMP_temperature;BMP_pressure;BME280_temperature;BME280_humidity;BME280_pressure;Samples;Min_cycle;Max_cycle;Signal;HPM_P1;HPM_P2
2024/02/14 00:02:21;;;;;;;;;;;;;;;-144.99;98.15;52611.16;5030555;28;19933;-69
2024/02/14 00:04:48;;;;;;;;;;;;;;;-144.99;97.74;52607.09;5027209;28;19929;-69
2024/02/14 00:07:14;;;;;;;;;;;;;;;-144.99;97.81;52594.84;5029014;28;20419;-69
2024/02/14 00:09:41;;;;;;;;;;;;;;;-144.99;97.04;52584.66;5020839;28;19932;-68
2024/02/14 00:12:09;;;;;;;;;;;;;;;-144.99;97.36;52627.47;5027469;28;19966;-69
2024/02/14 00:14:35;;;;;;;;;;;;;;;-144.99;97.41;52611.16;5028541;28;19939;-69
2024/02/14 00:17:03;;;;;;;;;;;;;;;-144.99;97.86;52613.19;5027150;28;19925;-69
2024/02/14 00:19:30;;;;;;;;;;;;;;;-144.99;97.61;52592.81;5027542;28;19996;-68
2024/02/14 00:21:57;;;;;;;;;;;;;;;-144.99;97.25;52619.31;5022405;28;20011;-69
2024/02/14 00:24:23;;;;;;;;;;;;;;;-144.99;97.01;52603.00;5022404;28;20020;-69
2024/02/14 00:26:50;;;;;;;;;;;;;;;-144.99;97.38;52615.25;5021666;28;20015;-68
2024/02/14 00:29:17;;;;;;;;;;;;;;;-144.99;97.27;52631.53;5024621;28;19976;-71
2024/02/14 00:31:44;;;;;;;;;;;;;;;-144.99;96.72;52566.31;5030622;28;20480;-70
2024/02/14 00:34:12;;;;;;;;;;;;;;;-144.99;96.75;52625.44;5025848;28;19984;-69
2024/02/14 00:36:39;;;;;;;;;;;;;;;-144.99;97.19;52631.53;5025169;28;19929;-68
2024/02/14 00:39:08;;;;;;;;;;;;;;;-144.99;97.20;52615.25;5043258;22;19983;-69
2024/02/14 00:41:35;;;;;;;;;;;;;;;-144.99;97.36;52611.16;5008878;28;20022;-65
2024/02/14 00:44:01;;;;;;;;;;;;;;;-144.99;96.89;52637.66;5007672;28;19929;-65
2024/02/14 00:46:28;;;;;;;;;;;;;;;-144.99;97.20;52627.47;5005042;28;20159;-65
2024/02/14 00:48:55;;;;;;;;;;;;;;;-144.99;97.23;52639.69;5007880;28;19952;-62
2024/02/14 00:51:23;;;;;;;;;;;;;;;-144.99;97.01;52598.94;5007506;28;19947;-62
2024/02/14 00:53:49;;;;;;;;;;;;;;;-144.99;96.81;52603.00;5005806;28;20008;-63
2024/02/14 00:56:19;;;;;;;;;;;;;;;-144.99;96.63;52607.09;5003850;28;19934;-63
2024/02/14 00:58:45;;;;;;;;;;;;;;;-144.99;97.67;52645.81;5002437;28;19930;-63
2024/02/14 01:01:12;;;;;;;;;;;;;;;-144.99;98.17;52637.66;5004971;28;20016;-60
2024/02/14 01:03:38;;;;;;;;;;;;;;;-144.99;97.86;52627.47;5006903;28;20371;-60
2024/02/14 01:06:05;;;;;;;;;;;;;;;-144.99;97.99;52619.31;5002075;28;20243;-60
2024/02/14 01:08:33;;;;;;;;;;;;;;;-144.99;98.41;52637.66;5007862;28;20418;-60
2024/02/14 01:11:03;;;;;;;;;;;;;;;-144.99;98.96;52615.25;5007363;28;19929;-61
2024/02/14 01:13:29;;;;;;;;;;;;;;;-144.99;98.88;52615.25;5001527;28;19937;-61
2024/02/14 01:15:56;;;;;;;;;;;;;;;-144.99;99.57;52651.94;5005691;28;19929;-61
2024/02/14 01:18:22;;;;;;;;;;;;;;;-144.99;100.00;52639.69;5005720;28;19952;-61
2024/02/14 01:20:49;;;;;;;;;;;;;;;-144.99;100.00;52603.00;5001138;28;19975;-61
2024/02/14 01:23:15;;;;;;;;;;;;;;;-144.99;100.00;52619.31;5003036;28;19933;-59
2024/02/14 01:25:43;;;;;;;;;;;;;;;-144.99;100.00;52631.53;5002821;28;20406;-58
2024/02/14 01:28:10;;;;;;;;;;;;;;;-144.99;100.00;52603.00;4987116;28;19930;-59
2024/02/14 01:30:36;;;;;;;;;;;;;;;-144.99;100.00;52639.69;5001210;28;20328;-60
2024/02/14 01:33:04;;;;;;;;;;;;;;;-144.99;100.00;52627.47;5006643;28;19936;-60
2024/02/14 01:35:30;;;;;;;;;;;;;;;-144.99;100.00;52625.44;4999506;28;20060;-60
2024/02/14 01:37:57;;;;;;;;;;;;;;;-144.99;100.00;52611.16;5006172;28;20083;-61
2024/02/14 01:40:23;;;;;;;;;;;;;;;-144.99;100.00;52603.00;4662575;28;9999697;-62
2024/02/14 01:42:52;;;;;;;;;;;;;;;-144.99;100.00;52611.16;5001881;28;19999;-63
2024/02/14 01:45:19;;;;;;;;;;;;;;;-144.99;100.00;52562.25;5005028;28;19929;-61
2024/02/14 01:47:46;;;;;;;;;;;;;;;-144.99;100.00;52635.63;5003802;28;20407;-62
2024/02/14 01:50:12;;;;;;;;;;;;;;;-144.99;100.00;52637.66;5007367;28;19933;-61
2024/02/14 01:52:39;;;;;;;;;;;;;;;-144.99;100.00;52596.88;5006949;28;20344;-63
2024/02/14 01:55:08;;;;;;;;;;;;;;;-144.99;100.00;52631.53;5007227;28;19925;-61
2024/02/14 01:57:34;;;;;;;;;;;;;;;-144.99;100.00;52627.47;5002348;28;19961;-61
2024/02/14 02:00:07;;;;;;;;;;;;;;;-144.99;100.00;52625.44;5006855;28;20017;-60
2024/02/14 02:02:36;;;;;;;;;;;;;;;-144.99;100.00;52625.44;5005723;28;20112;-61
2024/02/14 02:05:03;;;;;;;;;;;;;;;-144.99;100.00;52590.78;5007593;28;19981;-62
2024/02/14 02:07:30;;;;;;;;;;;;;;;-144.99;100.00;52603.00;5010184;28;19933;-61
2024/02/14 02:09:56;;;;;;;;;;;;;;;-144.99;100.00;52627.47;5008731;28;20041;-62
2024/02/14 02:12:25;;;;;;;;;;;;;;;-144.99;100.00;52656.00;5002027;28;19933;-60
2024/02/14 02:14:51;;;;;;;;;;;;;;;-144.99;100.00;52631.53;5001352;28;19957;-66
2024/02/14 02:17:19;;;;;;;;;;;;;;;-144.99;100.00;52617.28;5007477;28;20454;-66
2024/02/14 02:19:48;;;;;;;;;;;;;;;-144.99;100.00;52625.44;5001979;28;19964;-66
2024/02/14 02:22:15;;;;;;;;;;;;;;;-144.99;100.00;52631.53;5008233;28;19925;-66
2024/02/14 02:24:43;;;;;;;;;;;;;;;-144.99;100.00;52641.72;5007863;28;19952;-66
2024/02/14 02:27:09;;;;;;;;;;;;;;;-144.99;100.00;52619.31;5006250;28;20015;-66
2024/02/14 02:29:37;;;;;;;;;;;;;;;-144.99;100.00;52631.53;5007884;28;19965;-66
2024/02/14 02:32:05;;;;;;;;;;;;;;;-144.99;100.00;52643.78;5004580;28;19934;-65
2024/02/14 02:34:32;;;;;;;;;;;;;;;-144.99;100.00;52656.00;5001566;28;19925;-65
2024/02/14 02:36:58;;;;;;;;;;;;;;;-144.99;100.00;52639.69;4995855;28;19957;-66
2024/02/14 02:39:25;;;;;;;;;;;;;;;-144.99;100.00;52611.16;5003787;28;19975;-66
2024/02/14 02:41:55;;;;;;;;;;;;;;;-144.99;100.00;52639.69;5005827;28;19933;-66
2024/02/14 02:44:21;;;;;;;;;;;;;;;-144.99;100.00;52629.50;5004455;28;19940;-66
2024/02/14 02:46:48;;;;;;;;;;;;;;;-144.99;100.00;52635.63;5004647;28;19925;-66
2024/02/14 02:49:15;;;;;;;;;;;;;;;-144.99;100.00;52635.63;5008541;28;20068;-66
2024/02/14 02:51:41;;;;;;;;;;;;;;;-144.99;100.00;52594.84;5006955;28;19926;-66
2024/02/14 02:54:08;;;;;;;;;;;;;;;-144.99;100.00;52598.94;5006157;28;20024;-65
2024/02/14 02:56:35;;;;;;;;;;;;;;;-144.99;100.00;52647.84;5005361;28;19934;-66
2024/02/14 02:59:03;;;;;;;;;;;;;;;-144.99;100.00;52627.47;5003328;28;19984;-65
2024/02/14 03:01:30;;;;;;;;;;;;;;;-144.99;100.00;52586.69;5007325;28;20446;-64
2024/02/14 03:03:58;;;;;;;;;;;;;;;-144.99;100.00;52578.53;5000128;28;19930;-65
2024/02/14 03:06:26;;;;;;;;;;;;;;;-144.99;100.00;52617.28;5008340;28;20285;-64
2024/02/14 03:08:55;;;;;;;;;;;;;;;-144.99;100.00;52598.94;5003667;28;19925;-65
2024/02/14 03:11:22;;;;;;;;;;;;;;;-144.99;100.00;52603.00;5005537;28;20411;-65
2024/02/14 03:13:49;;;;;;;;;;;;;;;-144.99;100.00;52586.69;5000016;28;19930;-66
2024/02/14 03:16:17;;;;;;;;;;;;;;;-144.99;100.00;52660.09;4999000;28;19930;-66
2024/02/14 03:18:44;;;;;;;;;;;;;;;-144.99;100.00;52635.63;5005599;28;19926;-66
2024/02/14 03:21:11;;;;;;;;;;;;;;;-144.99;100.00;52627.47;4998605;28;20012;-66
2024/02/14 03:23:39;;;;;;;;;;;;;;;-144.99;100.00;52639.69;5007277;28;19940;-67
2024/02/14 03:26:07;;;;;;;;;;;;;;;-144.99;100.00;52600.97;5011146;28;19932;-67
2024/02/14 03:28:34;;;;;;;;;;;;;;;-144.99;100.00;52623.38;5011055;28;19993;-66
2024/02/14 03:31:00;;;;;;;;;;;;;;;-144.99;100.00;52609.13;5009338;28;19969;-66
2024/02/14 03:33:28;;;;;;;;;;;;;;;-144.99;100.00;52570.38;5010483;28;20469;-65
2024/02/14 03:35:55;;;;;;;;;;;;;;;-144.99;100.00;52627.47;5008345;28;20273;-65
2024/02/14 03:38:28;;;;;;;;;;;;;;;-144.99;100.00;52594.84;5011918;28;20474;-67
2024/02/14 03:40:54;;;;;;;;;;;;;;;-144.99;100.00;52609.13;5004513;28;20020;-67
2024/02/14 03:43:23;;;;;;;;;;;;;;;-144.99;100.00;52619.31;5011870;28;19935;-67
2024/02/14 03:45:49;;;;;;;;;;;;;;;-144.99;100.00;52598.94;5009402;28;19929;-61
2024/02/14 03:48:16;;;;;;;;;;;;;;;-144.99;100.00;52603.00;5010325;28;20172;-61
2024/02/14 03:50:44;;;;;;;;;;;;;;;-144.99;100.00;52603.00;5006284;28;19925;-61
2024/02/14 03:53:11;;;;;;;;;;;;;;;-144.99;100.00;52603.00;5010618;28;19932;-61
2024/02/14 03:55:38;;;;;;;;;;;;;;;-144.99;100.00;52631.53;5005069;28;20418;-61
2024/02/14 03:58:06;;;;;;;;;;;;;;;-144.99;100.00;52598.94;4999203;28;20035;-61
2024/02/14 04:00:35;;;;;;;;;;;;;;;-144.99;100.00;52627.47;5006224;28;19935;-61
2024/02/14 04:03:02;;;;;;;;;;;;;;;-144.99;100.00;52623.38;5007618;28;19930;-62
2024/02/14 04:05:29;;;;;;;;;;;;;;;-144.99;100.00;52590.78;5005297;28;20379;-62
2024/02/14 04:07:56;;;;;;;;;;;;;;;-144.99;100.00;52582.63;5009875;28;19937;-62
2024/02/14 04:10:23;;;;;;;;;;;;;;;-144.99;100.00;52586.69;5009263;28;20012;-62
2024/02/14 04:12:50;;;;;;;;;;;;;;;-144.99;100.00;52594.84;5011737;28;20177;-62
2024/02/14 04:15:17;;;;;;;;;;;;;;;-144.99;100.00;52643.78;5008342;28;20501;-62
2024/02/14 04:17:43;;;;;;;;;;;;;;;-144.99;100.00;52619.31;5007799;28;19929;-62
2024/02/14 04:20:10;;;;;;;;;;;;;;;-144.99;100.00;52570.38;5010461;28;20040;-61
2024/02/14 04:22:36;;;;;;;;;;;;;;;-144.99;100.00;52590.78;5004882;28;20023;-62
2024/02/14 04:25:05;;;;;;;;;;;;;;;-144.99;100.00;52607.09;5007208;28;20589;-62
2024/02/14 04:27:31;;;;;;;;;;;;;;;-144.99;100.00;52594.84;5009562;28;20454;-62
2024/02/14 04:29:58;;;;;;;;;;;;;;;-144.99;100.00;52623.38;5010213;28;19973;-60
2024/02/14 04:32:24;;;;;;;;;;;;;;;-144.99;100.00;52605.03;5011243;28;19929;-60
2024/02/14 04:34:51;;;;;;;;;;;;;;;-144.99;100.00;52607.09;5008484;28;20000;-60
2024/02/14 04:37:18;;;;;;;;;;;;;;;-144.99;100.00;52631.53;4998566;28;19984;-60
2024/02/14 04:39:45;;;;;;;;;;;;;;;-144.99;100.00;52639.69;5008504;28;19925;-60
2024/02/14 04:42:13;;;;;;;;;;;;;;;-144.99;100.00;52615.25;5006519;28;20336;-62
2024/02/14 04:44:40;;;;;;;;;;;;;;;-144.99;100.00;52590.78;5002710;28;19925;-61
2024/02/14 04:47:09;;;;;;;;;;;;;;;-144.99;100.00;52594.84;5006310;28;20363;-62
2024/02/14 04:49:35;;;;;;;;;;;;;;;-144.99;100.00;52603.00;5005608;28;20017;-63
2024/02/14 04:52:02;;;;;;;;;;;;;;;-144.99;100.00;52609.13;5009927;28;20116;-63
2024/02/14 04:54:28;;;;;;;;;;;;;;;-144.99;100.00;52615.25;5007611;28;20012;-63
2024/02/14 04:56:55;;;;;;;;;;;;;;;-144.99;100.00;52623.38;5010654;28;19968;-64
2024/02/14 04:59:23;;;;;;;;;;;;;;;-144.99;100.00;52578.53;5009566;28;19965;-63
2024/02/14 05:01:50;;;;;;;;;;;;;;;-144.99;100.00;52603.00;5008800;28;19926;-61
2024/02/14 05:04:17;;;;;;;;;;;;;;;-144.99;100.00;52578.53;5004819;28;20028;-61
2024/02/14 05:06:44;;;;;;;;;;;;;;;-144.99;100.00;52621.34;5010326;28;19976;-60
2024/02/14 05:09:10;;;;;;;;;;;;;;;-144.99;100.00;52590.78;5010052;28;20331;-61
2024/02/14 05:11:37;;;;;;;;;;;;;;;-144.99;100.00;52594.84;5007585;28;19929;-61
2024/02/14 05:14:03;;;;;;;;;;;;;;;-144.99;100.00;52615.25;5008109;28;20008;-61
2024/02/14 05:16:31;;;;;;;;;;;;;;;-144.99;100.00;52615.25;5010482;28;19929;-61
2024/02/14 05:18:57;;;;;;;;;;;;;;;-144.99;100.00;52566.31;5008322;28;19968;-61
2024/02/14 05:21:24;;;;;;;;;;;;;;;-144.99;100.00;52645.81;5009347;28;19930;-59
2024/02/14 05:23:50;;;;;;;;;;;;;;;-144.99;100.00;52617.28;5009306;28;19984;-60
2024/02/14 05:26:17;;;;;;;;;;;;;;;-144.99;100.00;52550.00;5009586;28;19936;-60
2024/02/14 05:28:43;;;;;;;;;;;;;;;-144.99;100.00;52576.50;5008228;28;19968;-61
2024/02/14 05:31:10;;;;;;;;;;;;;;;-144.99;100.00;52633.59;5005769;28;20048;-60
2024/02/14 05:33:38;;;;;;;;;;;;;;;-144.99;100.00;52647.84;5007065;28;19926;-66
2024/02/14 05:36:05;;;;;;;;;;;;;;;-144.99;100.00;52594.84;5007363;28;20372;-64
2024/02/14 05:38:33;;;;;;;;;;;;;;;-144.99;100.00;52631.53;5000641;28;19929;-63
2024/02/14 05:41:00;;;;;;;;;;;;;;;-144.99;100.00;52588.75;5008424;28;19948;-61
2024/02/14 05:43:26;;;;;;;;;;;;;;;-144.99;100.00;52611.16;5005498;28;19929;-66
2024/02/14 05:45:53;;;;;;;;;;;;;;;-144.99;100.00;52584.66;5004004;28;20296;-66
2024/02/14 05:48:20;;;;;;;;;;;;;;;-144.99;100.00;52623.38;5006711;28;19987;-66
2024/02/14 05:50:48;;;;;;;;;;;;;;;-144.99;100.00;52621.34;5000144;28;20470;-66
2024/02/14 05:53:14;;;;;;;;;;;;;;;-144.99;100.00;52623.38;5008779;28;20375;-66
2024/02/14 05:55:41;;;;;;;;;;;;;;;-144.99;100.00;52592.81;5007323;28;19983;-66
2024/02/14 05:58:08;;;;;;;;;;;;;;;-144.99;100.00;52566.31;5009786;28;20363;-66
2024/02/14 06:00:34;;;;;;;;;;;;;;;-144.99;100.00;52603.00;5007669;28;19937;-66
2024/02/14 06:03:01;;;;;;;;;;;;;;;-144.99;100.00;52590.78;5014369;28;20651;-66
2024/02/14 06:05:28;;;;;;;;;;;;;;;-144.99;100.00;52590.78;5001200;28;20358;-66
2024/02/14 06:07:56;;;;;;;;;;;;;;;-144.99;100.00;52607.09;5009571;28;19964;-66
2024/02/14 06:10:25;;;;;;;;;;;;;;;-144.99;100.00;52619.31;5009360;28;19930;-66
2024/02/14 06:12:51;;;;;;;;;;;;;;;-144.99;100.00;52598.94;5007385;28;20439;-65
2024/02/14 06:15:18;;;;;;;;;;;;;;;-144.99;100.00;52594.84;5004507;28;20046;-65
2024/02/14 06:17:44;;;;;;;;;;;;;;;-144.99;100.00;52590.78;5010034;28;20061;-69
2024/02/14 06:20:12;;;;;;;;;;;;;;;-144.99;100.00;52598.94;5010195;28;19930;-66
2024/02/14 06:22:39;;;;;;;;;;;;;;;-144.99;100.00;52588.75;4985628;28;20379;-67
2024/02/14 06:25:07;;;;;;;;;;;;;;;-144.99;100.00;52590.78;5008835;28;19969;-67
2024/02/14 06:27:34;;;;;;;;;;;;;;;-144.99;100.00;52590.78;5006450;28;20276;-67
2024/02/14 06:30:00;;;;;;;;;;;;;;;-144.99;100.00;52562.25;5008530;28;19992;-71
2024/02/14 06:32:27;;;;;;;;;;;;;;;-144.99;100.00;52594.84;4315962;28;10000739;-71
2024/02/14 06:34:53;;;;;;;;;;;;;;;-144.99;100.00;52609.13;5008417;28;20055;-71
2024/02/14 06:37:20;;;;;;;;;;;;;;;-144.99;100.00;52566.31;5005335;28;19925;-70
2024/02/14 06:42:15;;;;;;;;;;;;;;;-144.99;100.00;52627.47;5040689;28;19933;-77
2024/02/14 06:44:44;;;;;;;;;;;;;;;-144.99;100.00;52586.69;5049519;28;19928;-79
2024/02/14 06:47:11;;;;;;;;;;;;;;;-144.99;100.00;52566.31;5045003;28;20019;-77
2024/02/14 06:49:37;;;;;;;;;;;;;;;-144.99;100.00;52580.59;5040359;28;20383;-76
2024/02/14 06:52:04;;;;;;;;;;;;;;;-144.99;100.00;52635.63;5025856;28;20462;-79
2024/02/14 06:54:31;;;;;;;;;;;;;;;-144.99;100.00;52525.56;5024384;28;20019;-79
2024/02/14 06:56:57;;;;;;;;;;;;;;;-144.99;100.00;52611.16;5024314;28;19929;-78
2024/02/14 06:59:26;;;;;;;;;;;;;;;-144.99;100.00;52603.00;5026094;28;20448;-79
2024/02/14 07:01:54;;;;;;;;;;;;;;;-144.99;100.00;52590.78;5024420;28;19928;-83
2024/02/14 07:04:25;;;;;;;;;;;;;;;-144.99;100.00;52578.53;5025050;28;19929;-77
2024/02/14 07:06:51;;;;;;;;;;;;;;;-144.99;100.00;52609.13;5026581;28;19928;-79
2024/02/14 07:09:18;;;;;;;;;;;;;;;-144.99;100.00;52562.25;5011441;28;19926;-78
2024/02/14 07:11:45;;;;;;;;;;;;;;;-144.99;100.00;52562.25;5022696;28;20008;-81
2024/02/14 07:14:12;;;;;;;;;;;;;;;-144.99;100.00;52582.63;5024929;28;19925;-80
2024/02/14 07:16:40;;;;;;;;;;;;;;;-144.99;100.00;52607.09;5019072;28;20333;-81
2024/02/14 07:19:06;;;;;;;;;;;;;;;-144.99;100.00;52619.31;5024058;28;19947;-80
2024/02/14 07:21:33;;;;;;;;;;;;;;;-144.99;100.00;52590.78;5006687;28;20014;-77
2024/02/14 07:23:59;;;;;;;;;;;;;;;-144.99;100.00;52590.78;5027853;28;19984;-78
2024/02/14 07:26:26;;;;;;;;;;;;;;;-144.99;100.00;52582.63;5026906;28;20251;-77
2024/02/14 07:28:52;;;;;;;;;;;;;;;-144.99;100.00;52582.63;5014168;28;20422;-76
2024/02/14 07:31:19;;;;;;;;;;;;;;;-144.99;100.00;52605.03;5023406;28;19998;-78
2024/02/14 07:33:47;;;;;;;;;;;;;;;-144.99;100.00;52582.63;5037105;28;19936;-82
2024/02/14 07:36:14;;;;;;;;;;;;;;;-144.99;100.00;52582.63;5047907;28;19924;-81
2024/02/14 07:38:42;;;;;;;;;;;;;;;-144.99;100.00;52580.59;5047727;28;19923;-83
2024/02/14 07:41:08;;;;;;;;;;;;;;;-144.99;100.00;52594.84;5051124;28;19913;-80
2024/02/14 07:43:35;;;;;;;;;;;;;;;-144.99;100.00;52574.47;5034074;28;20401;-77
2024/02/14 07:46:01;;;;;;;;;;;;;;;-144.99;100.00;52584.66;5029911;28;20371;-80
2024/02/14 07:48:28;;;;;;;;;;;;;;;-144.99;100.00;52607.09;5022540;28;19940;-79
2024/02/14 07:50:56;;;;;;;;;;;;;;;-144.99;100.00;52594.84;4677660;28;10000018;-80
2024/02/14 07:53:22;;;;;;;;;;;;;;;-144.99;100.00;52598.94;5018693;28;19947;-77
2024/02/14 07:55:49;;;;;;;;;;;;;;;-144.99;100.00;52574.47;5014133;28;19976;-73
2024/02/14 07:58:15;;;;;;;;;;;;;;;-144.99;100.00;52554.09;5024516;28;20441;-82
2024/02/14 08:00:42;;;;;;;;;;;;;;;-144.99;100.00;52525.56;5026197;28;19936;-78
2024/02/14 08:03:08;;;;;;;;;;;;;;;-144.99;100.00;52554.09;5022823;28;20023;-76
2024/02/14 08:05:35;;;;;;;;;;;;;;;-144.99;100.00;52558.16;5027165;28;19940;-81
2024/02/14 08:08:03;;;;;;;;;;;;;;;-144.99;100.00;52562.25;5020726;28;19965;-80
2024/02/14 08:10:29;;;;;;;;;;;;;;;-144.99;100.00;52611.16;5022396;28;19929;-80
2024/02/14 08:12:55;;;;;;;;;;;;;;;-144.99;100.00;52578.53;5023472;28;20357;-78
2024/02/14 08:15:22;;;;;;;;;;;;;;;-144.99;100.00;52590.78;5029501;28;19929;-78
2024/02/14 08:17:48;;;;;;;;;;;;;;;-144.99;100.00;52598.94;5026458;28;19968;-79
2024/02/14 08:20:15;;;;;;;;;;;;;;;-144.99;100.00;52566.31;5026422;28;19939;-80
2024/02/14 08:22:41;;;;;;;;;;;;;;;-144.99;100.00;52590.78;5026250;28;19984;-78
2024/02/14 08:25:09;;;;;;;;;;;;;;;-144.99;100.00;52570.38;5022461;28;20454;-76
2024/02/14 08:27:36;;;;;;;;;;;;;;;-144.99;100.00;52598.94;5024996;28;19932;-81
2024/02/14 08:30:04;;;;;;;;;;;;;;;-144.99;100.00;52578.53;5025523;28;19929;-79
2024/02/14 08:32:30;;;;;;;;;;;;;;;-144.99;100.00;52582.63;5025165;28;20372;-78
2024/02/14 08:34:57;;;;;;;;;;;;;;;-144.99;100.00;52566.31;5023780;28;19976;-77
2024/02/14 08:37:24;;;;;;;;;;;;;;;-144.99;100.00;52539.81;5023095;28;19929;-79
2024/02/14 08:39:54;;;;;;;;;;;;;;;-144.99;100.00;52598.94;5027602;28;20304;-81
2024/02/14 08:42:22;;;;;;;;;;;;;;;-144.99;100.00;52533.69;5028586;28;19983;-78
2024/02/14 08:44:48;;;;;;;;;;;;;;;-144.99;100.00;52562.25;5030675;28;19932;-78
2024/02/14 08:47:15;;;;;;;;;;;;;;;-144.99;100.00;52552.03;5026566;28;19936;-79
2024/02/14 08:49:41;;;;;;;;;;;;;;;-144.99;100.00;52554.09;5028650;28;19987;-77
2024/02/14 08:52:08;;;;;;;;;;;;;;;-144.99;100.00;52607.09;5028180;28;20355;-77
2024/02/14 08:54:34;;;;;;;;;;;;;;;-144.99;100.00;52582.63;5027621;28;19932;-75
2024/02/14 08:57:02;;;;;;;;;;;;;;;-144.99;100.00;52550.00;5026534;28;20027;-75
2024/02/14 08:59:30;;;;;;;;;;;;;;;-144.99;100.00;52594.84;5026866;28;19932;-78
2024/02/14 09:01:56;;;;;;;;;;;;;;;-144.99;100.00;52594.84;5026883;28;20016;-77
2024/02/14 09:04:23;;;;;;;;;;;;;;;-144.99;100.00;52568.34;5027556;28;20004;-78
2024/02/14 09:06:49;;;;;;;;;;;;;;;-144.99;100.00;52607.09;5027687;28;19925;-76
2024/02/14 09:09:16;;;;;;;;;;;;;;;-144.99;100.00;52603.00;5026482;28;19957;-78
2024/02/14 09:11:42;;;;;;;;;;;;;;;-144.99;100.00;52574.47;5033217;28;19929;-79
2024/02/14 09:14:10;;;;;;;;;;;;;;;-144.99;100.00;52572.44;5025868;28;19929;-75
2024/02/14 09:16:38;;;;;;;;;;;;;;;-144.99;100.00;52550.00;5027532;28;19929;-77
2024/02/14 09:19:07;;;;;;;;;;;;;;;-144.99;100.00;52600.97;5023866;28;20015;-78
2024/02/14 09:21:34;;;;;;;;;;;;;;;-144.99;100.00;52576.50;5028077;28;19993;-78
2024/02/14 09:24:00;;;;;;;;;;;;;;;-144.99;100.00;52543.91;5027558;28;19998;-77
2024/02/14 09:26:28;;;;;;;;;;;;;;;-144.99;100.00;52562.25;5018010;28;20012;-78
2024/02/14 09:28:55;;;;;;;;;;;;;;;-144.99;100.00;52554.09;5020919;28;19934;-75
2024/02/14 09:31:22;;;;;;;;;;;;;;;-144.99;100.00;52558.16;5024112;28;20005;-79
2024/02/14 09:33:49;;;;;;;;;;;;;;;-144.99;100.00;52537.78;5025315;28;19933;-78
2024/02/14 09:36:16;;;;;;;;;;;;;;;-144.99;100.00;52588.75;5026539;28;19925;-79
2024/02/14 09:38:43;;;;;;;;;;;;;;;-144.99;100.00;52574.47;5024387;28;20214;-79
2024/02/14 09:41:15;;;;;;;;;;;;;;;-144.99;100.00;52564.28;5033012;28;19952;-75
2024/02/14 09:43:44;;;;;;;;;;;;;;;-144.99;100.00;52570.38;5029465;28;19933;-77
2024/02/14 09:46:12;;;;;;;;;;;;;;;-144.99;100.00;52566.31;5026299;28;19948;-75
2024/02/14 09:48:39;;;;;;;;;;;;;;;-144.99;100.00;52558.16;5021893;28;20044;-76
2024/02/14 09:51:08;;;;;;;;;;;;;;;-144.99;100.00;52598.94;5026724;28;19983;-79
2024/02/14 09:53:34;;;;;;;;;;;;;;;-144.99;100.00;52505.16;5027941;28;19929;-80
2024/02/14 09:56:02;;;;;;;;;;;;;;;-144.99;100.00;52533.69;5031242;28;20566;-79
2024/02/14 09:58:30;;;;;;;;;;;;;;;-144.99;100.00;52525.56;5054404;28;19929;-81
2024/02/14 10:00:56;;;;;;;;;;;;;;;-144.99;100.00;52562.25;5052443;28;19948;-83
2024/02/14 10:03:23;;;;;;;;;;;;;;;-144.99;100.00;52582.63;5053247;28;20052;-79
2024/02/14 10:05:49;;;;;;;;;;;;;;;-144.99;100.00;52545.94;5036985;28;19972;-78
2024/02/14 10:08:17;;;;;;;;;;;;;;;-144.99;100.00;52570.38;5025667;28;20057;-80
2024/02/14 10:10:45;;;;;;;;;;;;;;;-144.99;100.00;52619.31;5032197;28;20408;-78
2024/02/14 10:13:12;;;;;;;;;;;;;;;-144.99;100.00;52550.00;5027220;28;19925;-78
2024/02/14 10:15:38;;;;;;;;;;;;;;;-144.99;100.00;52509.25;5026889;28;20022;-79
2024/02/14 10:18:05;;;;;;;;;;;;;;;-144.99;100.00;52541.84;5023886;28;19979;-74
2024/02/14 10:20:33;;;;;;;;;;;;;;;-144.99;100.00;52545.94;5027663;28;20015;-76
2024/02/14 10:23:03;;;;;;;;;;;;;;;-144.99;100.00;52537.78;5022195;28;20351;-76
2024/02/14 10:25:32;;;;;;;;;;;;;;;-144.99;100.00;52547.97;5028189;28;20040;-79
2024/02/14 10:28:04;;;;;;;;;;;;;;;-144.99;100.00;52558.16;5030138;28;19929;-79
2024/02/14 10:30:30;;;;;;;;;;;;;;;-144.99;100.00;52574.47;5024841;28;19971;-79
2024/02/14 10:32:59;;;;;;;;;;;;;;;-144.99;100.00;52541.84;5030162;28;20012;-76
2024/02/14 10:35:25;;;;;;;;;;;;;;;-144.99;100.00;52541.84;5022268;28;19926;-78
2024/02/14 10:37:53;;;;;;;;;;;;;;;-144.99;100.00;52521.47;5026412;28;19941;-78
2024/02/14 10:40:21;;;;;;;;;;;;;;;-144.99;100.00;52550.00;5018174;28;19933;-78
2024/02/14 10:42:50;;;;;;;;;;;;;;;-144.99;100.00;52545.94;5025652;28;20009;-76
2024/02/14 10:45:16;;;;;;;;;;;;;;;-144.99;100.00;52578.53;5024061;28;19929;-78
2024/02/14 10:47:48;;;;;;;;;;;;;;;-144.99;100.00;52545.94;5025489;28;20070;-79
2024/02/14 10:50:16;;;;;;;;;;;;;;;-144.99;100.00;52547.97;5023811;28;19945;-78
2024/02/14 10:52:43;;;;;;;;;;;;;;;-144.99;100.00;52537.78;5023104;28;19929;-76
2024/02/14 10:55:11;;;;;;;;;;;;;;;-144.99;100.00;52529.63;5018685;28;19983;-77
2024/02/14 10:57:37;;;;;;;;;;;;;;;-144.99;100.00;52545.94;5023186;28;20269;-78
2024/02/14 11:00:07;;;;;;;;;;;;;;;-144.99;100.00;52519.44;5025573;28;20219;-78
2024/02/14 11:02:34;;;;;;;;;;;;;;;-144.99;100.00;52527.59;5024040;28;19929;-78
2024/02/14 11:05:02;;;;;;;;;;;;;;;-144.99;100.00;52492.94;5027608;28;20302;-78
2024/02/14 11:07:29;;;;;;;;;;;;;;;-144.99;100.00;52525.56;5021606;28;19995;-78
2024/02/14 11:10:05;;;;;;;;;;;;;;;-144.99;100.00;52521.47;5024006;28;20011;-78
2024/02/14 11:12:34;;;;;;;;;;;;;;;-144.99;100.00;52529.63;5024478;28;20043;-79
2024/02/14 11:15:01;;;;;;;;;;;;;;;-144.99;100.00;52501.09;5023808;28;19939;-79
2024/02/14 11:17:29;;;;;;;;;;;;;;;-144.99;100.00;52556.13;5016604;28;21037;-77
2024/02/14 11:19:55;;;;;;;;;;;;;;;-144.99;100.00;52537.78;5022587;28;20014;-79
2024/02/14 11:22:22;;;;;;;;;;;;;;;-144.99;100.00;52517.41;5019019;28;19928;-78
2024/02/14 11:24:49;;;;;;;;;;;;;;;-144.99;100.00;52562.25;5020824;28;20420;-75
2024/02/14 11:27:20;;;;;;;;;;;;;;;-144.99;100.00;52505.16;5022647;28;19940;-79
2024/02/14 11:29:54;;;;;;;;;;;;;;;-144.99;100.00;52550.00;5019373;28;20481;-78
2024/02/14 11:32:22;;;;;;;;;;;;;;;-144.99;100.00;52533.69;5022116;28;19936;-76
2024/02/14 11:34:58;;;;;;;;;;;;;;;-144.99;100.00;52497.00;5019348;28;19928;-78
2024/02/14 11:37:28;;;;;;;;;;;;;;;-144.99;100.00;52513.31;4679023;28;10000911;-80
2024/02/14 11:39:57;;;;;;;;;;;;;;;-144.99;100.00;52537.78;5022391;28;19936;-81
2024/02/14 11:42:24;;;;;;;;;;;;;;;-144.99;100.00;52490.91;5027652;28;19925;-80
2024/02/14 11:44:50;;;;;;;;;;;;;;;-144.99;100.00;52531.66;5026723;28;20313;-78
2024/02/14 11:47:17;;;;;;;;;;;;;;;-144.99;100.00;52556.13;5031719;28;20007;-79
2024/02/14 11:49:44;;;;;;;;;;;;;;;-144.99;100.00;52511.28;5036030;28;19955;-79
2024/02/14 11:52:12;;;;;;;;;;;;;;;-144.99;100.00;52511.28;5026626;28;19925;-78
2024/02/14 11:54:38;;;;;;;;;;;;;;;-144.99;100.00;52541.84;5029514;28;19932;-78
2024/02/14 11:57:05;;;;;;;;;;;;;;;-144.99;100.00;52564.28;5026419;28;20385;-76
2024/02/14 11:59:33;;;;;;;;;;;;;;;-144.99;100.00;52556.13;5029003;28;20002;-81
2024/02/14 12:02:02;;;;;;;;;;;;;;;-144.99;100.00;52513.31;5029165;28;19925;-79
2024/02/14 12:04:29;;;;;;;;;;;;;;;-144.99;100.00;52537.78;5032119;28;19933;-79
2024/02/14 12:06:56;;;;;;;;;;;;;;;-144.99;100.00;52521.47;5015284;28;20339;-80
2024/02/14 12:09:23;;;;;;;;;;;;;;;-144.99;100.00;52529.63;5038295;28;19920;-82
2024/02/14 12:11:50;;;;;;;;;;;;;;;-144.99;100.00;52517.41;5058738;28;20096;-83
2024/02/14 12:14:18;;;;;;;;;;;;;;;-144.99;100.00;52541.84;5053520;28;19913;-83
2024/02/14 12:16:45;;;;;;;;;;;;;;;-144.99;100.00;52497.00;5036927;28;19987;-78
2024/02/14 12:19:15;;;;;;;;;;;;;;;-144.99;100.00;52497.00;5026670;28;19936;-77
2024/02/14 12:21:43;;;;;;;;;;;;;;;-144.99;100.00;52519.44;5028677;28;19973;-79